UAE62A OMDB-YMML
Flight info
| Callsign | UAE62A |
|---|---|
| Flight time | N/A |
| Altitude | 29000 |
| Route | ANVIX L223 TARDI N629 GIDAN P570 EMURU M300 VASTU P895 AKLON/N0506F310 P895 BIKOK M641 KAT N640 ELATI DCT 07S095E/N0499F330 10S098E DCT SAKAB DCT BIBGA DCT ATLOD/N0486F350 DCT OPALL DCT LST DCT SEEMO DCT ISRED DCT DONBU DCT MTG Y53 ALAXO |
| Aircraft | B77W/H-SDE1E2E3FGHIJ2J3J4J5M1RWXY/LB1D1 |
Departure
| Time | N/A |
|---|---|
| Airport | Dubai International Airport (OMDB) |
Arrival
| Time | 2026-05-04 11:50 |
|---|---|
| Airport | Melbourne Airport (YMML) |
| Time | Latitude | Longitude | Altitude | Speed | Heading |
|---|---|---|---|---|---|
| 2026-05-04 09:26 | -31.02915 | 126.14475 | 35298 ft | 502 kts | 129° |
| 2026-05-04 09:26 | -31.04851 | 126.17863 | 35298 ft | 502 kts | 129° |
| 2026-05-04 09:26 | -31.08696 | 126.24605 | 35309 ft | 502 kts | 129° |
| 2026-05-04 09:27 | -31.12569 | 126.31405 | 35307 ft | 502 kts | 129° |
| 2026-05-04 09:27 | -31.16436 | 126.38205 | 35307 ft | 502 kts | 129° |
| 2026-05-04 09:28 | -31.20302 | 126.45015 | 35287 ft | 502 kts | 129° |
| 2026-05-04 09:28 | -31.24138 | 126.51782 | 35298 ft | 502 kts | 129° |
| 2026-05-04 09:29 | -31.27993 | 126.58595 | 35301 ft | 502 kts | 129° |
| 2026-05-04 09:29 | -31.31848 | 126.65420 | 35293 ft | 502 kts | 129° |
| 2026-05-04 09:30 | -31.35697 | 126.72249 | 35308 ft | 502 kts | 129° |
| 2026-05-04 09:30 | -31.39514 | 126.79029 | 35306 ft | 502 kts | 128° |
| 2026-05-04 09:31 | -31.43355 | 126.85865 | 35298 ft | 502 kts | 128° |
| 2026-05-04 09:31 | -31.47188 | 126.92700 | 35302 ft | 502 kts | 128° |
| 2026-05-04 09:32 | -31.51023 | 126.99550 | 35312 ft | 502 kts | 128° |
| 2026-05-04 09:34 | -31.66291 | 127.26941 | 35308 ft | 503 kts | 128° |
| 2026-05-04 09:34 | -31.70138 | 127.33875 | 35301 ft | 503 kts | 128° |
| 2026-05-04 09:35 | -31.73955 | 127.40767 | 35299 ft | 503 kts | 128° |
| 2026-05-04 09:35 | -31.77741 | 127.47613 | 35308 ft | 503 kts | 128° |
| 2026-05-04 09:37 | -31.92971 | 127.75283 | 35307 ft | 504 kts | 127° |
| 2026-05-04 09:38 | -31.96778 | 127.82230 | 35299 ft | 505 kts | 127° |
| 2026-05-04 09:38 | -32.00581 | 127.89184 | 35298 ft | 505 kts | 127° |
| 2026-05-04 09:39 | -32.04379 | 127.96142 | 35302 ft | 505 kts | 127° |
| 2026-05-04 09:39 | -32.08176 | 128.03109 | 35294 ft | 505 kts | 127° |
| 2026-05-04 09:40 | -32.11978 | 128.10098 | 35291 ft | 505 kts | 127° |
| 2026-05-04 09:40 | -32.15746 | 128.17039 | 35291 ft | 505 kts | 126° |
| 2026-05-04 09:42 | -32.30901 | 128.45081 | 35299 ft | 507 kts | 126° |
| 2026-05-04 09:43 | -32.34687 | 128.52118 | 35290 ft | 507 kts | 126° |
| 2026-05-04 09:43 | -32.38470 | 128.59164 | 35291 ft | 507 kts | 126° |
| 2026-05-04 09:44 | -32.42221 | 128.66163 | 35304 ft | 507 kts | 126° |
| 2026-05-04 09:46 | -32.57300 | 128.94432 | 35293 ft | 507 kts | 125° |
| 2026-05-04 09:46 | -32.61061 | 129.01517 | 35290 ft | 508 kts | 125° |
| 2026-05-04 09:47 | -32.64821 | 129.08613 | 35287 ft | 508 kts | 125° |
| 2026-05-04 09:49 | -32.79790 | 129.36999 | 35298 ft | 507 kts | 125° |
| 2026-05-04 09:51 | -32.92805 | 129.61854 | 35289 ft | 505 kts | 124° |
| 2026-05-04 09:51 | -32.96506 | 129.68954 | 35280 ft | 505 kts | 124° |
| 2026-05-04 09:52 | -33.00201 | 129.76056 | 35282 ft | 504 kts | 124° |
| 2026-05-04 09:52 | -33.03889 | 129.83158 | 35299 ft | 503 kts | 124° |
| 2026-05-04 09:53 | -33.07573 | 129.90264 | 35273 ft | 503 kts | 124° |
| 2026-05-04 09:53 | -33.11240 | 129.97352 | 35268 ft | 502 kts | 124° |
| 2026-05-04 09:54 | -33.14907 | 130.04455 | 35292 ft | 502 kts | 125° |
| 2026-05-04 09:54 | -33.18567 | 130.11557 | 35274 ft | 502 kts | 124° |
| 2026-05-04 09:55 | -33.22191 | 130.18602 | 35278 ft | 501 kts | 124° |
| 2026-05-04 09:55 | -33.25836 | 130.25702 | 35282 ft | 501 kts | 124° |
| 2026-05-04 09:56 | -33.29470 | 130.32795 | 35273 ft | 500 kts | 124° |
| 2026-05-04 09:56 | -33.33098 | 130.39890 | 35271 ft | 500 kts | 124° |
| 2026-05-04 09:57 | -33.36716 | 130.46980 | 35271 ft | 499 kts | 124° |
| 2026-05-04 09:57 | -33.40335 | 130.54084 | 35280 ft | 498 kts | 124° |
| 2026-05-04 09:58 | -33.43940 | 130.61174 | 35270 ft | 498 kts | 124° |
| 2026-05-04 09:58 | -33.47510 | 130.68211 | 35266 ft | 497 kts | 124° |
| 2026-05-04 10:00 | -33.61846 | 130.96603 | 35280 ft | 498 kts | 124° |
| 2026-05-04 10:04 | -33.86112 | 131.45181 | 35263 ft | 494 kts | 124° |
| 2026-05-04 10:04 | -33.90234 | 131.53411 | 35264 ft | 493 kts | 125° |
| 2026-05-04 10:05 | -33.93318 | 131.59248 | 35268 ft | 492 kts | 126° |
| 2026-05-04 10:05 | -33.97029 | 131.66185 | 35265 ft | 492 kts | 126° |
| 2026-05-04 10:06 | -34.00696 | 131.73095 | 35260 ft | 492 kts | 126° |
| 2026-05-04 10:06 | -34.04362 | 131.80060 | 35262 ft | 492 kts | 126° |
| 2026-05-04 10:08 | -34.17150 | 132.04502 | 35248 ft | 492 kts | 125° |
| 2026-05-04 10:08 | -34.20793 | 132.11492 | 35253 ft | 491 kts | 125° |
| 2026-05-04 10:09 | -34.24430 | 132.18485 | 35250 ft | 491 kts | 125° |
| 2026-05-04 10:09 | -34.28047 | 132.25452 | 35248 ft | 491 kts | 125° |
| 2026-05-04 10:10 | -34.31678 | 132.32462 | 35251 ft | 491 kts | 125° |
| 2026-05-04 10:10 | -34.35302 | 132.39472 | 35248 ft | 491 kts | 125° |
| 2026-05-04 10:11 | -34.38924 | 132.46492 | 35245 ft | 491 kts | 125° |
| 2026-05-04 10:11 | -34.42536 | 132.53505 | 35244 ft | 491 kts | 125° |
| 2026-05-04 10:12 | -34.46144 | 132.60526 | 35245 ft | 490 kts | 125° |
| 2026-05-04 10:13 | -34.53425 | 132.74732 | 35242 ft | 490 kts | 125° |
| 2026-05-04 10:13 | -34.56999 | 132.81727 | 35242 ft | 490 kts | 125° |
| 2026-05-04 10:14 | -34.60590 | 132.88770 | 35241 ft | 491 kts | 125° |
| 2026-05-04 10:16 | -34.74958 | 133.17089 | 35238 ft | 493 kts | 124° |
| 2026-05-04 10:16 | -34.78545 | 133.24195 | 35243 ft | 493 kts | 124° |
| 2026-05-04 10:17 | -34.82130 | 133.31311 | 35228 ft | 493 kts | 124° |
| 2026-05-04 10:19 | -34.96404 | 133.59788 | 35229 ft | 493 kts | 124° |
| 2026-05-04 10:19 | -34.99974 | 133.66947 | 35233 ft | 493 kts | 124° |
| 2026-05-04 10:20 | -35.03535 | 133.74103 | 35225 ft | 493 kts | 124° |
| 2026-05-04 10:20 | -35.07091 | 133.81262 | 35224 ft | 493 kts | 124° |
| 2026-05-04 10:21 | -35.10647 | 133.88436 | 35225 ft | 493 kts | 124° |
| 2026-05-04 10:21 | -35.14203 | 133.95625 | 35222 ft | 494 kts | 124° |
| 2026-05-04 10:22 | -35.19505 | 134.06373 | 35224 ft | 494 kts | 124° |
| 2026-05-04 10:23 | -35.23049 | 134.13575 | 35220 ft | 494 kts | 124° |
| 2026-05-04 10:25 | -35.37175 | 134.42434 | 35213 ft | 495 kts | 124° |
| 2026-05-04 10:25 | -35.40702 | 134.49677 | 35207 ft | 495 kts | 124° |
| 2026-05-04 10:26 | -35.44229 | 134.56936 | 35207 ft | 495 kts | 124° |
| 2026-05-04 10:26 | -35.47751 | 134.64199 | 35207 ft | 496 kts | 124° |
| 2026-05-04 10:27 | -35.51275 | 134.71480 | 35202 ft | 496 kts | 124° |
| 2026-05-04 10:27 | -35.54796 | 134.78773 | 35205 ft | 496 kts | 124° |
| 2026-05-04 10:28 | -35.58316 | 134.86080 | 35203 ft | 496 kts | 124° |
| 2026-05-04 10:28 | -35.61827 | 134.93383 | 35201 ft | 496 kts | 124° |
| 2026-05-04 10:29 | -35.65287 | 135.00665 | 35201 ft | 497 kts | 121° |
| 2026-05-04 10:29 | -35.68379 | 135.08298 | 35202 ft | 499 kts | 119° |
| 2026-05-04 10:30 | -35.71387 | 135.16002 | 35196 ft | 499 kts | 119° |
| 2026-05-04 10:30 | -35.74400 | 135.23704 | 35201 ft | 499 kts | 119° |
| 2026-05-04 10:31 | -35.77427 | 135.31400 | 35182 ft | 500 kts | 119° |
| 2026-05-04 10:32 | -35.88040 | 135.58443 | 35183 ft | 502 kts | 119° |
| 2026-05-04 10:33 | -35.91067 | 135.66203 | 35184 ft | 502 kts | 119° |
| 2026-05-04 10:33 | -35.94077 | 135.73938 | 35184 ft | 502 kts | 119° |
| 2026-05-04 10:34 | -35.97100 | 135.81724 | 35164 ft | 502 kts | 119° |
| 2026-05-04 10:34 | -36.00118 | 135.89518 | 35174 ft | 503 kts | 119° |
| 2026-05-04 10:35 | -36.03137 | 135.97329 | 35174 ft | 503 kts | 119° |
| 2026-05-04 10:35 | -36.06129 | 136.05093 | 35185 ft | 503 kts | 119° |
| 2026-05-04 10:36 | -36.09140 | 136.12925 | 35176 ft | 504 kts | 119° |
| 2026-05-04 10:36 | -36.12143 | 136.20755 | 35168 ft | 504 kts | 119° |
| 2026-05-04 10:37 | -36.15147 | 136.28605 | 35176 ft | 504 kts | 119° |
| 2026-05-04 10:37 | -36.18148 | 136.36468 | 35167 ft | 505 kts | 119° |
| 2026-05-04 10:39 | -36.28604 | 136.64020 | 35155 ft | 506 kts | 119° |
| 2026-05-04 10:40 | -36.31583 | 136.71914 | 35156 ft | 506 kts | 119° |
| 2026-05-04 10:40 | -36.34539 | 136.79765 | 35151 ft | 505 kts | 119° |
| 2026-05-04 10:41 | -36.37503 | 136.87661 | 35149 ft | 504 kts | 119° |
| 2026-05-04 10:41 | -36.40460 | 136.95555 | 35149 ft | 504 kts | 119° |
| 2026-05-04 10:42 | -36.43411 | 137.03452 | 35148 ft | 504 kts | 119° |
| 2026-05-04 10:42 | -36.46351 | 137.11341 | 35149 ft | 503 kts | 119° |
| 2026-05-04 10:43 | -36.48796 | 137.17916 | 35155 ft | 503 kts | 119° |
| 2026-05-04 10:45 | -36.60490 | 137.49558 | 35138 ft | 504 kts | 119° |
| 2026-05-04 10:45 | -36.63409 | 137.57508 | 35134 ft | 504 kts | 119° |
| 2026-05-04 10:46 | -36.66318 | 137.65452 | 35134 ft | 505 kts | 119° |
| 2026-05-04 10:46 | -36.69230 | 137.73423 | 35125 ft | 505 kts | 119° |
| 2026-05-04 10:47 | -36.72132 | 137.81388 | 35130 ft | 504 kts | 119° |
| 2026-05-04 10:47 | -36.75032 | 137.89366 | 35124 ft | 505 kts | 119° |
| 2026-05-04 10:49 | -36.86592 | 138.21381 | 35113 ft | 507 kts | 118° |
| 2026-05-04 10:50 | -36.89454 | 138.29360 | 35132 ft | 507 kts | 118° |
| 2026-05-04 10:52 | -37.00936 | 138.61580 | 35096 ft | 507 kts | 118° |
| 2026-05-04 10:52 | -37.03797 | 138.69663 | 35098 ft | 507 kts | 118° |
| 2026-05-04 10:54 | -37.15155 | 139.01960 | 35098 ft | 508 kts | 118° |
| 2026-05-04 10:56 | -37.26459 | 139.34455 | 35079 ft | 508 kts | 118° |
| 2026-05-04 10:57 | -37.29269 | 139.42590 | 35075 ft | 508 kts | 118° |
| 2026-05-04 10:57 | -37.32057 | 139.50679 | 35082 ft | 508 kts | 118° |
| 2026-05-04 10:58 | -37.34857 | 139.58828 | 35071 ft | 508 kts | 118° |
| 2026-05-04 10:58 | -37.37655 | 139.66992 | 35069 ft | 508 kts | 118° |
| 2026-05-04 10:59 | -37.40450 | 139.75170 | 35069 ft | 509 kts | 118° |
| 2026-05-04 10:59 | -37.43236 | 139.83345 | 35063 ft | 509 kts | 118° |
| 2026-05-04 11:00 | -37.46023 | 139.91546 | 35060 ft | 509 kts | 118° |
| 2026-05-04 11:02 | -37.57082 | 140.24314 | 35054 ft | 509 kts | 118° |
| 2026-05-04 11:05 | -37.75575 | 140.87066 | 35035 ft | 525 kts | 97° |
| 2026-05-04 11:06 | -37.75910 | 140.96291 | 35036 ft | 526 kts | 96° |
| 2026-05-04 11:06 | -37.76207 | 141.05547 | 35030 ft | 527 kts | 96° |
| 2026-05-04 11:10 | -37.78573 | 141.70351 | 35022 ft | 528 kts | 96° |
| 2026-05-04 11:12 | -37.79780 | 142.07509 | 35032 ft | 529 kts | 96° |
| 2026-05-04 11:12 | -37.80063 | 142.16809 | 35013 ft | 530 kts | 96° |
| 2026-05-04 11:13 | -37.80199 | 142.21382 | 34996 ft | 519 kts | 96° |
| 2026-05-04 11:13 | -37.80329 | 142.25873 | 34993 ft | 503 kts | 96° |
| 2026-05-04 11:13 | -37.80455 | 142.30220 | 35007 ft | 489 kts | 96° |
| 2026-05-04 11:13 | -37.80578 | 142.34496 | 34857 ft | 483 kts | 95° |
| 2026-05-04 11:14 | -37.80848 | 142.44345 | 33859 ft | 475 kts | 96° |
| 2026-05-04 11:16 | -37.81641 | 142.75459 | 30515 ft | 447 kts | 99° |
| 2026-05-04 11:16 | -37.81736 | 142.79326 | 30127 ft | 444 kts | 98° |
| 2026-05-04 11:16 | -37.81830 | 142.83222 | 29633 ft | 441 kts | 98° |
| 2026-05-04 11:17 | -37.81922 | 142.87101 | 29156 ft | 438 kts | 98° |
| 2026-05-04 11:17 | -37.82012 | 142.90943 | 28666 ft | 434 kts | 98° |
| 2026-05-04 11:19 | -37.82587 | 143.16984 | 25596 ft | 413 kts | 95° |
| 2026-05-04 11:19 | -37.82662 | 143.20619 | 25188 ft | 410 kts | 95° |
| 2026-05-04 11:19 | -37.82736 | 143.24209 | 24787 ft | 408 kts | 95° |
| 2026-05-04 11:19 | -37.82809 | 143.27789 | 24411 ft | 405 kts | 93° |
| 2026-05-04 11:20 | -37.82879 | 143.31326 | 24036 ft | 402 kts | 93° |
| 2026-05-04 11:20 | -37.82948 | 143.34852 | 23665 ft | 399 kts | 93° |
| 2026-05-04 11:20 | -37.83015 | 143.38353 | 23226 ft | 397 kts | 93° |
| 2026-05-04 11:20 | -37.83081 | 143.41840 | 22777 ft | 394 kts | 93° |
| 2026-05-04 11:22 | -37.83504 | 143.65634 | 19811 ft | 380 kts | 92° |
| 2026-05-04 11:22 | -37.83559 | 143.68970 | 19406 ft | 378 kts | 92° |
| 2026-05-04 11:23 | -37.83613 | 143.72287 | 19026 ft | 376 kts | 92° |
| 2026-05-04 11:23 | -37.83666 | 143.75584 | 18645 ft | 374 kts | 92° |
| 2026-05-04 11:24 | -37.83961 | 143.95038 | 16189 ft | 363 kts | 92° |
| 2026-05-04 11:25 | -37.83991 | 143.98219 | 15791 ft | 361 kts | 89° |
| 2026-05-04 11:25 | -37.83768 | 144.01385 | 15376 ft | 360 kts | 82° |
| 2026-05-04 11:25 | -37.83372 | 144.04499 | 15027 ft | 357 kts | 80° |
| 2026-05-04 11:26 | -37.82550 | 144.10673 | 14272 ft | 354 kts | 81° |
| 2026-05-04 11:27 | -37.80065 | 144.31738 | 12942 ft | 322 kts | 81° |
| 2026-05-04 11:28 | -37.79740 | 144.34510 | 12744 ft | 316 kts | 81° |
| 2026-05-04 11:28 | -37.79416 | 144.37257 | 12380 ft | 315 kts | 81° |
| 2026-05-04 11:28 | -37.79202 | 144.39076 | 12108 ft | 316 kts | 81° |
| 2026-05-04 11:28 | -37.78770 | 144.42720 | 11639 ft | 315 kts | 81° |
| 2026-05-04 11:29 | -37.78514 | 144.45452 | 11301 ft | 309 kts | 91° |
| 2026-05-04 11:29 | -37.78716 | 144.48164 | 10875 ft | 311 kts | 101° |
| 2026-05-04 11:29 | -37.78975 | 144.49974 | 10633 ft | 310 kts | 102° |
| 2026-05-04 11:29 | -37.79377 | 144.52601 | 10372 ft | 307 kts | 102° |
| 2026-05-04 11:31 | -37.81763 | 144.70964 | 8137 ft | 299 kts | 100° |
| 2026-05-04 11:33 | -37.80327 | 144.85780 | 4101 ft | 264 kts | 7° |
| 2026-05-04 11:33 | -37.78584 | 144.86034 | 3404 ft | 250 kts | 349° |
| 2026-05-04 11:33 | -37.76884 | 144.85778 | 2718 ft | 243 kts | 344° |
| 2026-05-04 11:34 | -37.75247 | 144.85447 | 2774 ft | 233 kts | 343° |
| 2026-05-04 11:34 | -37.73688 | 144.85097 | 3573 ft | 216 kts | 337° |
| 2026-05-04 11:34 | -37.72467 | 144.84242 | 3950 ft | 197 kts | 305° |
| 2026-05-04 11:34 | -37.71889 | 144.82733 | 3979 ft | 191 kts | 276° |
| 2026-05-04 11:35 | -37.71805 | 144.81067 | 3984 ft | 191 kts | 272° |
| 2026-05-04 11:35 | -37.71752 | 144.79408 | 3994 ft | 188 kts | 272° |
| 2026-05-04 11:35 | -37.71710 | 144.77772 | 4017 ft | 186 kts | 271° |
| 2026-05-04 11:35 | -37.71668 | 144.76144 | 4003 ft | 186 kts | 272° |
| 2026-05-04 11:36 | -37.71623 | 144.74522 | 4001 ft | 185 kts | 271° |
| 2026-05-04 11:36 | -37.71571 | 144.72903 | 3987 ft | 184 kts | 272° |
| 2026-05-04 11:36 | -37.71519 | 144.71292 | 3987 ft | 183 kts | 271° |
| 2026-05-04 11:36 | -37.71464 | 144.69690 | 3997 ft | 182 kts | 271° |
| 2026-05-04 11:37 | -37.71402 | 144.68085 | 3996 ft | 183 kts | 271° |
| 2026-05-04 11:37 | -37.71340 | 144.66471 | 3992 ft | 184 kts | 272° |
| 2026-05-04 11:37 | -37.71280 | 144.64851 | 3993 ft | 185 kts | 272° |
| 2026-05-04 11:37 | -37.71225 | 144.63228 | 3994 ft | 186 kts | 272° |
| 2026-05-04 11:38 | -37.71172 | 144.61597 | 3987 ft | 186 kts | 271° |
| 2026-05-04 11:38 | -37.71118 | 144.59969 | 3988 ft | 185 kts | 271° |
| 2026-05-04 11:38 | -37.71062 | 144.58344 | 3994 ft | 185 kts | 271° |
| 2026-05-04 11:38 | -37.71006 | 144.56722 | 3982 ft | 184 kts | 271° |
| 2026-05-04 11:39 | -37.70950 | 144.55127 | 3989 ft | 184 kts | 271° |
| 2026-05-04 11:39 | -37.70899 | 144.53518 | 3989 ft | 183 kts | 269° |
| 2026-05-04 11:40 | -37.78230 | 144.53661 | 3977 ft | 231 kts | 162° |
| 2026-05-04 11:41 | -37.79660 | 144.54551 | 3969 ft | 229 kts | 161° |
| 2026-05-04 11:41 | -37.81065 | 144.55451 | 3970 ft | 230 kts | 153° |
| 2026-05-04 11:41 | -37.82180 | 144.56981 | 3989 ft | 240 kts | 124° |
| 2026-05-04 11:41 | -37.82983 | 144.58879 | 4002 ft | 249 kts | 122° |
| 2026-05-04 11:42 | -37.83800 | 144.60826 | 3984 ft | 249 kts | 122° |
| 2026-05-04 11:42 | -37.84600 | 144.62757 | 3942 ft | 248 kts | 122° |
| 2026-05-04 11:42 | -37.85400 | 144.64699 | 3739 ft | 249 kts | 122° |
| 2026-05-04 11:42 | -37.86192 | 144.66630 | 3577 ft | 246 kts | 122° |
| 2026-05-04 11:43 | -37.86961 | 144.68512 | 3452 ft | 243 kts | 122° |
| 2026-05-04 11:43 | -37.87737 | 144.70411 | 3368 ft | 241 kts | 122° |
| 2026-05-04 11:43 | -37.88505 | 144.72290 | 3277 ft | 240 kts | 122° |
| 2026-05-04 11:43 | -37.89280 | 144.74184 | 3219 ft | 243 kts | 122° |
| 2026-05-04 11:44 | -37.90070 | 144.76098 | 3159 ft | 248 kts | 121° |
| 2026-05-04 11:44 | -37.90890 | 144.78038 | 2953 ft | 250 kts | 122° |
| 2026-05-04 11:44 | -37.91491 | 144.80049 | 2968 ft | 241 kts | 91° |
| 2026-05-04 11:44 | -37.91122 | 144.81991 | 2849 ft | 222 kts | 45° |
| 2026-05-04 11:45 | -37.89937 | 144.83033 | 2778 ft | 202 kts | 359° |
| 2026-05-04 11:45 | -37.88570 | 144.83064 | 2809 ft | 208 kts | 358° |
| 2026-05-04 11:45 | -37.87136 | 144.83737 | 2795 ft | 225 kts | 22° |
| 2026-05-04 11:45 | -37.85853 | 144.84780 | 2747 ft | 211 kts | 26° |
| 2026-05-04 11:46 | -37.84657 | 144.85803 | 2578 ft | 206 kts | 25° |
| 2026-05-04 11:46 | -37.83442 | 144.86746 | 2339 ft | 197 kts | 9° |
| 2026-05-04 11:46 | -37.82214 | 144.86748 | 2099 ft | 172 kts | 338° |
| 2026-05-04 11:46 | -37.81033 | 144.86453 | 2095 ft | 173 kts | 342° |
| 2026-05-04 11:47 | -37.79828 | 144.86216 | 2107 ft | 177 kts | 342° |
| 2026-05-04 11:47 | -37.78596 | 144.85979 | 1992 ft | 182 kts | 343° |
| 2026-05-04 11:47 | -37.77381 | 144.85753 | 1866 ft | 168 kts | 343° |
| 2026-05-04 11:47 | -37.76273 | 144.85551 | 1769 ft | 154 kts | 343° |
| 2026-05-04 11:48 | -37.75245 | 144.85367 | 1614 ft | 147 kts | 342° |
| 2026-05-04 11:48 | -37.74243 | 144.85200 | 1330 ft | 146 kts | 345° |
| 2026-05-04 11:48 | -37.73255 | 144.85001 | 1096 ft | 141 kts | 347° |
| 2026-05-04 11:48 | -37.72325 | 144.84785 | 985 ft | 133 kts | 351° |
| 2026-05-04 11:49 | -37.71383 | 144.84605 | 894 ft | 138 kts | 350° |
| 2026-05-04 11:49 | -37.70409 | 144.84422 | 721 ft | 142 kts | 352° |
| 2026-05-04 11:49 | -37.69428 | 144.84256 | 568 ft | 141 kts | 351° |
| 2026-05-04 11:49 | -37.68481 | 144.84079 | 377 ft | 136 kts | 352° |
| 2026-05-04 11:50 | -37.67620 | 144.83919 | 374 ft | 105 kts | 352° |
| 2026-05-04 11:50 | -37.67061 | 144.83815 | 389 ft | 67 kts | 351° |
| 2026-05-04 11:50 | -37.66690 | 144.83746 | 400 ft | 32 kts | 352° |
| 2026-05-04 11:50 | -37.66536 | 144.83775 | 406 ft | 17 kts | 39° |
| 2026-05-04 11:51 | -37.66511 | 144.83882 | 408 ft | 8 kts | 92° |
| 2026-05-04 11:51 | -37.66512 | 144.83889 | 409 ft | 0 kts | 93° |
| 2026-05-04 11:52 | -37.66512 | 144.83897 | 409 ft | 3 kts | 90° |
| 2026-05-04 11:52 | -37.66502 | 144.83950 | 409 ft | 9 kts | 68° |
| 2026-05-04 11:53 | -37.66513 | 144.84039 | 409 ft | 14 kts | 106° |
| 2026-05-04 11:53 | -37.66573 | 144.84139 | 405 ft | 16 kts | 149° |
| 2026-05-04 11:53 | -37.66685 | 144.84175 | 398 ft | 9 kts | 171° |
| 2026-05-04 11:53 | -37.66701 | 144.84225 | 396 ft | 7 kts | 78° |
| 2026-05-04 11:55 | -37.66734 | 144.84539 | 401 ft | 4 kts | 171° |
| 2026-05-04 11:55 | -37.66741 | 144.84541 | 400 ft | 0 kts | 172° |